createdAt,value
2018-08-17T00:01:31.088Z,19.10
2018-08-17T00:03:58.683Z,19.08
2018-08-17T00:06:26.215Z,19.06
2018-08-17T00:08:53.709Z,18.98
2018-08-17T00:11:21.456Z,19.08
2018-08-17T00:13:48.971Z,19.07
2018-08-17T00:16:16.437Z,19.06
2018-08-17T00:18:44.427Z,19.05
2018-08-17T00:21:11.876Z,19.06
2018-08-17T00:23:39.346Z,19.05
2018-08-17T00:26:07.104Z,19.03
2018-08-17T00:28:35.610Z,19.02
2018-08-17T00:31:03.177Z,19.01
2018-08-17T00:33:30.787Z,19.00
2018-08-17T00:35:58.307Z,18.99
2018-08-17T00:38:25.792Z,18.99
2018-08-17T00:40:53.518Z,18.99
2018-08-17T00:43:20.947Z,19.00
2018-08-17T00:45:48.492Z,18.98
2018-08-17T00:48:16.162Z,18.98
2018-08-17T00:50:43.678Z,18.96
2018-08-17T00:53:11.176Z,18.95
2018-08-17T00:55:38.893Z,18.95
2018-08-17T00:58:06.435Z,18.97
2018-08-17T01:00:33.940Z,18.98
2018-08-17T01:03:01.604Z,19.00
2018-08-17T01:05:29.079Z,18.98
2018-08-17T01:07:56.575Z,19.00
2018-08-17T01:10:24.361Z,19.00
2018-08-17T01:12:51.822Z,18.98
2018-08-17T01:15:19.327Z,18.98
2018-08-17T01:17:46.955Z,18.98
2018-08-17T01:20:14.604Z,18.97
2018-08-17T01:22:42.333Z,18.97
2018-08-17T01:25:09.955Z,18.96
2018-08-17T01:27:37.387Z,18.95
2018-08-17T01:30:05.374Z,18.93
2018-08-17T01:32:33.117Z,18.92
2018-08-17T01:35:00.580Z,18.91
2018-08-17T01:37:28.201Z,18.90
2018-08-17T01:39:55.949Z,18.92
2018-08-17T01:42:23.409Z,18.93
2018-08-17T01:44:50.895Z,18.93
2018-08-17T01:47:18.590Z,18.91
2018-08-17T01:49:46.068Z,18.92
2018-08-17T01:52:13.539Z,18.91
2018-08-17T01:54:41.200Z,18.91
2018-08-17T01:57:08.821Z,18.90
2018-08-17T01:59:36.322Z,18.90
2018-08-17T02:02:04.181Z,18.88
2018-08-17T02:04:31.749Z,18.88
2018-08-17T02:06:59.204Z,18.88
2018-08-17T02:09:26.855Z,18.89
2018-08-17T02:11:54.341Z,18.88
2018-08-17T02:14:21.826Z,18.88
2018-08-17T02:16:49.520Z,18.86
2018-08-17T02:19:16.993Z,18.87
2018-08-17T02:21:44.732Z,18.90
2018-08-17T02:24:12.311Z,18.90
2018-08-17T02:26:39.782Z,18.90
2018-08-17T02:29:07.239Z,18.91
2018-08-17T02:31:34.870Z,18.91
2018-08-17T02:34:02.376Z,18.93
2018-08-17T02:36:29.873Z,18.96
2018-08-17T02:38:57.548Z,18.97
2018-08-17T02:41:24.991Z,18.98
2018-08-17T02:43:52.404Z,18.98
2018-08-17T02:46:20.128Z,18.98
2018-08-17T02:48:47.617Z,18.96
2018-08-17T02:51:15.090Z,18.98
2018-08-17T02:53:42.737Z,18.97
2018-08-17T02:56:10.247Z,18.98
2018-08-17T02:58:37.726Z,18.98
2018-08-17T03:01:05.505Z,18.99
2018-08-17T03:03:32.992Z,19.00
2018-08-17T03:06:00.428Z,19.01
2018-08-17T03:08:28.089Z,19.01
2018-08-17T03:10:55.802Z,19.02
2018-08-17T03:13:23.258Z,19.03
2018-08-17T03:15:50.898Z,19.05
2018-08-17T03:18:18.360Z,19.04
2018-08-17T03:20:45.790Z,19.05
2018-08-17T03:23:13.632Z,19.06
2018-08-17T03:25:41.082Z,19.05
2018-08-17T03:28:08.552Z,19.05
2018-08-17T03:30:36.260Z,19.05
2018-08-17T03:33:03.792Z,19.05
2018-08-17T03:35:31.301Z,19.05
2018-08-17T03:37:59.024Z,19.05
2018-08-17T03:40:26.531Z,19.04
2018-08-17T03:42:54.025Z,19.05
2018-08-17T03:45:21.699Z,19.07
2018-08-17T03:47:49.168Z,19.08
2018-08-17T03:50:16.674Z,19.09
2018-08-17T03:52:44.354Z,19.08
2018-08-17T03:55:11.853Z,19.09
2018-08-17T03:57:39.433Z,19.09
2018-08-17T04:00:07.153Z,19.09
2018-08-17T04:02:34.621Z,19.09
2018-08-17T04:05:02.155Z,19.11
2018-08-17T04:07:29.787Z,19.12
2018-08-17T04:09:57.241Z,19.13
2018-08-17T04:12:24.696Z,19.13
2018-08-17T04:14:52.347Z,19.14
2018-08-17T04:17:19.830Z,19.16
2018-08-17T04:19:47.291Z,19.15
2018-08-17T04:22:14.985Z,19.17
2018-08-17T04:24:42.672Z,19.17
2018-08-17T04:27:10.317Z,19.17
2018-08-17T04:29:38.016Z,19.18
2018-08-17T04:32:05.850Z,19.20
2018-08-17T04:34:33.401Z,19.12
2018-08-17T04:37:01.136Z,19.20
2018-08-17T04:39:28.627Z,19.21
2018-08-17T04:41:56.090Z,19.22
2018-08-17T04:44:23.641Z,19.23
2018-08-17T04:46:51.312Z,19.24
2018-08-17T04:49:18.857Z,19.26
2018-08-17T04:51:46.658Z,19.27
2018-08-17T04:54:14.172Z,19.30
2018-08-17T04:56:41.636Z,19.31
2018-08-17T04:59:09.255Z,19.33
2018-08-17T05:01:36.702Z,19.34
2018-08-17T05:04:04.179Z,19.33
2018-08-17T05:06:32.100Z,19.35
2018-08-17T05:08:59.619Z,19.36
2018-08-17T05:11:27.189Z,19.39
2018-08-17T05:13:54.918Z,19.41
2018-08-17T05:16:22.394Z,19.44
2018-08-17T05:18:49.908Z,19.47
2018-08-17T05:21:17.627Z,19.50
2018-08-17T05:23:45.102Z,19.54
2018-08-17T05:26:12.965Z,19.58
2018-08-17T05:28:40.631Z,19.59
2018-08-17T05:31:08.215Z,19.61
2018-08-17T05:33:35.710Z,19.63
2018-08-17T05:36:03.402Z,19.64
2018-08-17T05:38:30.871Z,19.66
2018-08-17T05:40:58.426Z,19.68
2018-08-17T05:43:25.976Z,19.69
2018-08-17T05:45:53.461Z,19.71
2018-08-17T05:48:20.955Z,19.74
2018-08-17T05:50:48.616Z,19.75
2018-08-17T05:53:16.114Z,19.75
2018-08-17T05:55:43.585Z,19.75
2018-08-17T05:58:11.147Z,19.75
2018-08-17T06:00:38.638Z,19.75
2018-08-17T06:03:06.218Z,19.74
2018-08-17T06:05:33.988Z,19.75
2018-08-17T06:08:01.492Z,19.73
2018-08-17T06:10:29.157Z,19.72
2018-08-17T06:12:56.786Z,19.70
2018-08-17T06:15:24.246Z,19.70
2018-08-17T06:17:51.712Z,19.71
2018-08-17T06:20:19.449Z,19.69
2018-08-17T06:22:46.992Z,19.68
2018-08-17T06:25:14.599Z,19.66
2018-08-17T06:27:42.678Z,19.67
2018-08-17T06:30:11.786Z,19.67
2018-08-17T06:32:39.415Z,19.68
2018-08-17T06:35:08.454Z,19.69
2018-08-17T06:37:35.895Z,19.69
2018-08-17T06:40:03.547Z,19.69
2018-08-17T06:42:31.440Z,19.72
2018-08-17T06:44:58.925Z,19.72
2018-08-17T06:47:26.438Z,19.74
2018-08-17T06:49:54.179Z,19.76
2018-08-17T06:52:21.659Z,19.76
2018-08-17T06:54:49.097Z,19.78
2018-08-17T06:57:16.735Z,19.80
2018-08-17T06:59:44.206Z,19.79
2018-08-17T07:02:11.688Z,19.79
2018-08-17T07:04:39.331Z,19.79
2018-08-17T07:07:06.918Z,19.81
2018-08-17T07:09:34.479Z,19.82
2018-08-17T07:12:05.106Z,19.83
2018-08-17T07:14:32.640Z,19.83
2018-08-17T07:17:00.163Z,19.83
2018-08-17T07:19:27.839Z,19.83
2018-08-17T07:21:55.327Z,19.81
2018-08-17T07:24:22.801Z,19.80
2018-08-17T07:26:50.590Z,19.78
2018-08-17T07:29:18.352Z,19.77
2018-08-17T07:31:45.794Z,19.77
2018-08-17T07:34:13.503Z,19.77
2018-08-17T07:36:41.022Z,19.78
2018-08-17T07:40:11.511Z,19.79
2018-08-17T07:42:38.970Z,19.80
2018-08-17T07:45:06.827Z,19.82
2018-08-17T07:47:34.600Z,19.87
2018-08-17T07:50:02.113Z,19.91
2018-08-17T07:52:29.607Z,19.96
2018-08-17T07:54:57.329Z,20.01
2018-08-17T07:57:24.888Z,20.04
2018-08-17T07:59:52.383Z,20.06
2018-08-17T08:02:20.014Z,20.08
2018-08-17T08:04:47.503Z,20.11
2018-08-17T08:07:14.995Z,20.12
2018-08-17T08:09:42.647Z,20.13
2018-08-17T08:12:10.170Z,20.13
2018-08-17T08:14:37.701Z,20.14
2018-08-17T08:17:05.634Z,20.15
2018-08-17T08:19:33.054Z,20.16
2018-08-17T08:22:00.552Z,20.17
2018-08-17T08:24:28.238Z,20.19
2018-08-17T08:26:55.708Z,20.20
2018-08-17T08:31:56.684Z,20.29
2018-08-17T08:34:24.149Z,20.33
2018-08-17T08:36:51.673Z,20.36
2018-08-17T08:39:19.436Z,20.38
2018-08-17T08:41:46.910Z,20.39
2018-08-17T08:44:14.414Z,20.41
2018-08-17T08:46:42.112Z,20.43
2018-08-17T08:49:09.598Z,20.47
2018-08-17T08:51:37.077Z,20.50
2018-08-17T08:54:04.827Z,20.53
2018-08-17T08:56:32.300Z,20.57
2018-08-17T08:58:59.801Z,20.62
2018-08-17T09:01:27.524Z,20.63
2018-08-17T09:03:55.136Z,20.63
2018-08-17T09:06:23.219Z,20.64
2018-08-17T09:08:50.845Z,20.66
2018-08-17T09:11:18.326Z,20.69
2018-08-17T09:13:45.805Z,20.71
2018-08-17T09:16:13.560Z,20.74
2018-08-17T09:18:41.055Z,20.76
2018-08-17T09:21:08.581Z,20.77
2018-08-17T09:23:36.242Z,20.82
2018-08-17T09:26:03.808Z,20.87
2018-08-17T09:28:31.212Z,20.91
2018-08-17T09:30:58.891Z,20.94
2018-08-17T09:33:26.616Z,20.99
2018-08-17T09:35:54.062Z,21.02
2018-08-17T09:38:21.731Z,21.05
2018-08-17T09:40:49.210Z,21.08
2018-08-17T09:43:16.680Z,21.07
2018-08-17T09:45:44.305Z,21.07
2018-08-17T09:48:11.833Z,21.07
2018-08-17T09:50:39.375Z,21.08
2018-08-17T09:53:06.946Z,21.07
2018-08-17T09:55:34.417Z,21.11
2018-08-17T09:58:01.996Z,21.16
2018-08-17T10:00:35.029Z,21.20
2018-08-17T10:05:14.194Z,21.24
2018-08-17T10:07:47.209Z,21.33
2018-08-17T10:10:19.124Z,21.34
2018-08-17T10:12:47.536Z,21.37
2018-08-17T10:15:15.011Z,21.38
2018-08-17T10:17:42.754Z,21.37
2018-08-17T10:20:15.736Z,21.40
2018-08-17T10:22:43.498Z,21.40
2018-08-17T10:25:19.997Z,21.39
2018-08-17T10:27:48.574Z,21.38
2018-08-17T10:30:16.711Z,21.38
2018-08-17T10:33:01.989Z,21.37
2018-08-17T10:35:32.691Z,21.37
2018-08-17T10:38:02.559Z,21.33
2018-08-17T10:40:30.062Z,21.29
2018-08-17T10:42:58.954Z,21.25
2018-08-17T10:45:26.966Z,21.21
2018-08-17T10:47:54.879Z,21.19
2018-08-17T10:50:23.640Z,21.18
2018-08-17T10:52:54.268Z,21.20
2018-08-17T10:55:23.032Z,21.19
2018-08-17T10:57:50.877Z,21.20
2018-08-17T11:00:19.540Z,21.22
2018-08-17T11:02:53.568Z,21.22
2018-08-17T11:05:21.088Z,21.25
2018-08-17T11:07:48.860Z,21.31
2018-08-17T11:10:16.809Z,21.37
2018-08-17T11:12:45.349Z,21.51
2018-08-17T11:15:12.797Z,21.63
2018-08-17T11:17:41.282Z,21.76
2018-08-17T11:20:08.852Z,21.91
2018-08-17T11:22:36.635Z,21.97
2018-08-17T11:25:05.821Z,22.02
2018-08-17T11:27:33.636Z,22.09
2018-08-17T11:30:01.156Z,22.16
2018-08-17T11:32:28.932Z,22.15
2018-08-17T11:34:56.412Z,22.13
2018-08-17T11:37:24.211Z,22.09
2018-08-17T11:39:57.233Z,22.04
2018-08-17T11:42:24.868Z,22.01
2018-08-17T11:44:52.395Z,21.99
2018-08-17T11:47:20.120Z,22.01
2018-08-17T11:49:47.694Z,22.06
2018-08-17T11:52:15.170Z,22.11
2018-08-17T11:54:42.675Z,22.14
2018-08-17T11:57:10.307Z,22.16
2018-08-17T11:59:43.760Z,22.15
2018-08-17T12:02:11.742Z,22.19
2018-08-17T12:04:39.927Z,22.21
2018-08-17T12:07:07.521Z,22.25
2018-08-17T12:09:35.163Z,22.26
2018-08-17T12:12:02.637Z,22.30
2018-08-17T12:14:30.130Z,22.36
2018-08-17T12:16:57.664Z,22.40
2018-08-17T12:19:25.088Z,22.43
2018-08-17T12:21:52.559Z,22.41
2018-08-17T12:24:20.142Z,22.40
2018-08-17T12:26:53.108Z,22.35
2018-08-17T12:29:20.828Z,22.28
2018-08-17T12:31:48.432Z,22.21
2018-08-17T12:34:16.288Z,22.16
2018-08-17T12:36:43.886Z,22.15
2018-08-17T12:39:11.461Z,22.19
2018-08-17T12:41:38.969Z,22.28
2018-08-17T12:44:06.707Z,22.31
2018-08-17T12:46:34.198Z,22.36
2018-08-17T12:49:01.655Z,22.37
2018-08-17T12:51:29.403Z,22.43
2018-08-17T12:53:56.867Z,22.51
2018-08-17T12:56:24.381Z,22.54
2018-08-17T12:58:52.107Z,22.58
2018-08-17T13:01:19.556Z,22.60
2018-08-17T13:03:47.078Z,22.59
2018-08-17T13:06:14.815Z,22.61
2018-08-17T13:08:42.324Z,22.63
2018-08-17T13:11:09.869Z,22.65
2018-08-17T13:13:37.558Z,22.65
2018-08-17T13:16:06.358Z,22.69
2018-08-17T13:18:35.148Z,22.68
2018-08-17T13:21:02.799Z,22.67
2018-08-17T13:23:30.253Z,22.66
2018-08-17T13:25:57.743Z,22.65
2018-08-17T13:28:26.003Z,22.64
2018-08-17T13:30:53.410Z,22.57
2018-08-17T13:33:20.846Z,22.49
2018-08-17T13:35:48.505Z,22.41
2018-08-17T13:38:15.955Z,22.35
2018-08-17T13:40:43.759Z,22.24
2018-08-17T13:43:11.302Z,22.06
2018-08-17T13:45:38.882Z,22.10
2018-08-17T13:48:06.436Z,22.03
2018-08-17T13:50:34.152Z,21.98
2018-08-17T13:53:01.604Z,21.91
2018-08-17T13:55:29.402Z,21.85
2018-08-17T13:57:57.176Z,21.79
2018-08-17T14:00:24.660Z,21.77
2018-08-17T14:02:52.217Z,21.80
2018-08-17T14:05:19.988Z,21.82
2018-08-17T14:07:47.420Z,21.80
2018-08-17T14:10:15.031Z,21.74
2018-08-17T14:12:42.655Z,21.71
2018-08-17T14:15:10.328Z,21.69
2018-08-17T14:17:38.375Z,21.70
2018-08-17T14:20:12.122Z,21.67
2018-08-17T14:22:39.623Z,21.60
2018-08-17T14:25:07.968Z,21.56
2018-08-17T14:27:35.472Z,21.52
2018-08-17T14:30:04.013Z,21.43
2018-08-17T14:32:31.451Z,21.39
2018-08-17T14:34:58.981Z,21.34
2018-08-17T14:37:26.482Z,21.29
2018-08-17T14:39:53.955Z,21.24
2018-08-17T14:42:21.914Z,21.19
2018-08-17T14:44:49.600Z,21.13
2018-08-17T14:47:17.079Z,21.07
2018-08-17T14:49:44.614Z,21.02
2018-08-17T14:52:12.303Z,20.95
2018-08-17T14:54:39.832Z,20.90
2018-08-17T14:57:07.348Z,20.86
2018-08-17T14:59:35.020Z,20.82
2018-08-17T15:02:02.587Z,20.83
2018-08-17T15:04:30.968Z,20.85
2018-08-17T15:06:58.740Z,20.86
2018-08-17T15:09:26.292Z,20.86
2018-08-17T15:11:53.764Z,20.86
2018-08-17T15:14:21.401Z,20.85
2018-08-17T15:16:48.904Z,20.80
2018-08-17T15:19:16.391Z,20.77
2018-08-17T15:21:44.061Z,20.72
2018-08-17T15:24:11.484Z,20.71
2018-08-17T15:26:39.118Z,20.70
2018-08-17T15:29:06.819Z,20.67
2018-08-17T15:31:34.322Z,20.67
2018-08-17T15:34:01.794Z,20.66
2018-08-17T15:36:29.337Z,20.66
2018-08-17T15:38:56.895Z,20.65
2018-08-17T15:41:24.444Z,20.63
2018-08-17T15:43:52.049Z,20.62
2018-08-17T15:46:19.700Z,20.56
2018-08-17T15:48:55.010Z,20.53
2018-08-17T15:51:22.484Z,20.51
2018-08-17T15:53:50.164Z,20.46
2018-08-17T15:56:17.936Z,20.42
2018-08-17T15:58:45.458Z,20.40
2018-08-17T16:01:13.247Z,20.38
2018-08-17T16:03:40.879Z,20.34
2018-08-17T16:06:08.578Z,20.34
2018-08-17T16:08:36.060Z,20.32
2018-08-17T16:11:03.907Z,20.29
2018-08-17T16:13:31.374Z,20.28
2018-08-17T16:15:58.889Z,20.28
2018-08-17T16:18:26.580Z,20.26
2018-08-17T16:20:54.058Z,20.21
2018-08-17T16:23:21.486Z,20.20
2018-08-17T16:25:49.185Z,20.19
2018-08-17T16:28:16.668Z,20.15
2018-08-17T16:30:44.129Z,20.12
2018-08-17T16:33:11.841Z,20.11
2018-08-17T16:35:39.437Z,20.12
2018-08-17T16:38:07.034Z,20.13
2018-08-17T16:40:42.350Z,20.10
2018-08-17T16:43:09.870Z,20.05
2018-08-17T16:45:37.569Z,20.03
2018-08-17T16:48:06.213Z,19.98
2018-08-17T16:50:33.694Z,19.93
2018-08-17T16:53:01.207Z,19.86
2018-08-17T16:55:29.027Z,19.82
2018-08-17T16:57:56.493Z,19.78
2018-08-17T17:00:24.071Z,19.76
2018-08-17T17:02:51.758Z,19.73
2018-08-17T17:05:19.231Z,19.71
2018-08-17T17:07:46.839Z,19.69
2018-08-17T17:10:14.695Z,19.68
2018-08-17T17:12:42.200Z,19.66
2018-08-17T17:15:15.506Z,19.66
2018-08-17T17:17:49.198Z,19.63
2018-08-17T17:20:16.782Z,19.59
2018-08-17T17:22:44.332Z,19.58
2018-08-17T17:25:17.888Z,19.58
2018-08-17T17:27:45.685Z,19.55
2018-08-17T17:30:13.151Z,19.53
2018-08-17T17:32:40.797Z,19.51
2018-08-17T17:35:08.380Z,19.50
2018-08-17T17:37:35.907Z,19.48
2018-08-17T17:40:03.786Z,19.45
2018-08-17T17:42:31.285Z,19.42
2018-08-17T17:44:58.782Z,19.42
2018-08-17T17:47:26.922Z,19.37
2018-08-17T17:49:54.407Z,19.33
2018-08-17T17:52:21.902Z,19.27
2018-08-17T17:54:49.559Z,19.24
2018-08-17T17:57:17.091Z,19.21
2018-08-17T17:59:52.890Z,19.17
2018-08-17T18:02:21.028Z,19.14
2018-08-17T18:04:48.515Z,19.12
2018-08-17T18:07:16.024Z,19.10
2018-08-17T18:09:43.766Z,19.10
2018-08-17T18:12:11.371Z,19.10
2018-08-17T18:14:38.920Z,19.09
2018-08-17T18:17:06.944Z,18.99
2018-08-17T18:19:34.449Z,19.06
2018-08-17T18:22:01.973Z,19.05
2018-08-17T18:24:29.665Z,19.01
2018-08-17T18:26:57.209Z,18.98
2018-08-17T18:29:24.631Z,18.98
2018-08-17T18:31:52.207Z,18.98
2018-08-17T18:34:19.714Z,18.96
2018-08-17T18:36:47.203Z,18.98
2018-08-17T18:39:15.242Z,18.97
2018-08-17T18:41:42.924Z,18.95
2018-08-17T18:44:11.228Z,18.96
2018-08-17T18:46:38.908Z,18.94
2018-08-17T18:49:06.538Z,18.95
2018-08-17T18:51:34.317Z,18.95
2018-08-17T18:54:01.811Z,18.95
2018-08-17T18:56:29.349Z,18.95
2018-08-17T18:58:57.169Z,18.96
2018-08-17T19:01:24.757Z,18.94
2018-08-17T19:03:52.275Z,18.93
2018-08-17T19:06:19.762Z,18.89
2018-08-17T19:08:47.427Z,18.89
2018-08-17T19:11:14.864Z,18.87
2018-08-17T19:13:42.404Z,18.88
2018-08-17T19:16:10.005Z,18.89
2018-08-17T19:18:37.575Z,18.89
2018-08-17T19:21:07.215Z,18.90
2018-08-17T19:23:35.062Z,18.91
2018-08-17T19:26:02.534Z,18.91
2018-08-17T19:28:30.000Z,18.90
2018-08-17T19:30:57.713Z,18.89
2018-08-17T19:33:25.237Z,18.88
2018-08-17T19:35:52.723Z,18.87
2018-08-17T19:38:20.408Z,18.87
2018-08-17T19:40:47.889Z,18.88
2018-08-17T19:43:15.360Z,18.87
2018-08-17T19:45:43.024Z,18.86
2018-08-17T19:48:10.536Z,18.85
2018-08-17T19:50:38.217Z,18.83
2018-08-17T19:53:06.129Z,18.83
2018-08-17T19:55:33.589Z,18.84
2018-08-17T19:58:01.117Z,18.83
2018-08-17T20:00:28.815Z,18.82
2018-08-17T20:02:56.275Z,18.79
2018-08-17T20:05:23.774Z,18.77
2018-08-17T20:07:51.511Z,18.76
2018-08-17T20:10:18.995Z,18.67
2018-08-17T20:12:46.478Z,18.74
2018-08-17T20:15:14.236Z,18.72
2018-08-17T20:17:47.620Z,18.72
2018-08-17T20:20:15.064Z,18.72
2018-08-17T20:22:42.849Z,18.70
2018-08-17T20:25:12.920Z,18.70
2018-08-17T20:27:40.476Z,18.67
2018-08-17T20:30:13.381Z,18.68
2018-08-17T20:32:41.208Z,18.66
2018-08-17T20:35:08.674Z,18.66
2018-08-17T20:37:41.792Z,18.66
2018-08-17T20:40:09.568Z,18.65
2018-08-17T20:42:37.082Z,18.66
2018-08-17T20:45:05.418Z,18.66
2018-08-17T20:47:35.640Z,18.67
2018-08-17T20:50:04.414Z,18.66
2018-08-17T20:52:32.060Z,18.64
2018-08-17T20:54:59.735Z,18.60
2018-08-17T20:57:27.210Z,18.56
2018-08-17T20:59:54.742Z,18.52
2018-08-17T21:02:22.344Z,18.50
2018-08-17T21:04:49.855Z,18.44
2018-08-17T21:07:17.358Z,18.40
2018-08-17T21:09:45.017Z,18.37
2018-08-17T21:12:12.506Z,18.35
2018-08-17T21:14:39.950Z,18.33
2018-08-17T21:17:07.878Z,18.30
2018-08-17T21:19:39.531Z,18.26
2018-08-17T21:22:07.408Z,18.22
2018-08-17T21:24:35.163Z,18.20
2018-08-17T21:27:02.661Z,18.17
2018-08-17T21:29:30.425Z,18.18
2018-08-17T21:31:58.043Z,18.17
2018-08-17T21:34:25.639Z,18.18
2018-08-17T21:36:53.960Z,18.19
2018-08-17T21:39:21.590Z,18.17
2018-08-17T21:41:49.302Z,18.18
2018-08-17T21:44:17.989Z,18.15
2018-08-17T21:47:05.810Z,18.13
2018-08-17T21:49:33.965Z,18.12
2018-08-17T21:52:03.956Z,18.13
2018-08-17T21:54:32.784Z,18.13
2018-08-17T21:57:01.107Z,18.10
2018-08-17T21:59:49.060Z,18.11
2018-08-17T22:02:17.061Z,18.11
2018-08-17T22:04:44.556Z,18.10
2018-08-17T22:07:17.673Z,18.09
2018-08-17T22:09:45.239Z,18.08
2018-08-17T22:12:13.119Z,18.06
2018-08-17T22:14:40.580Z,18.04
2018-08-17T22:17:18.065Z,18.03
2018-08-17T22:19:45.599Z,18.01
2018-08-17T22:22:13.115Z,17.98
2018-08-17T22:24:46.035Z,17.95
2018-08-17T22:27:15.089Z,17.92
2018-08-17T22:29:44.125Z,17.90
2018-08-17T22:32:11.662Z,17.89
2018-08-17T22:34:39.178Z,17.87
2018-08-17T22:37:06.673Z,17.88
2018-08-17T22:39:34.179Z,17.86
2018-08-17T22:42:02.046Z,17.86
2018-08-17T22:44:29.403Z,17.84
2018-08-17T22:47:08.146Z,17.82
2018-08-17T22:49:35.608Z,17.81
2018-08-17T22:52:04.529Z,17.79
2018-08-17T22:54:32.567Z,17.78
2018-08-17T22:57:00.209Z,17.76
2018-08-17T22:59:27.702Z,17.73
2018-08-17T23:01:55.301Z,17.73
2018-08-17T23:04:22.808Z,17.71
2018-08-17T23:06:50.329Z,17.69
2018-08-17T23:09:17.992Z,17.67
2018-08-17T23:11:45.457Z,17.64
2018-08-17T23:14:14.520Z,17.62
2018-08-17T23:16:42.840Z,17.62
2018-08-17T23:19:10.276Z,17.60
2018-08-17T23:21:38.106Z,17.57
2018-08-17T23:24:05.955Z,17.52
2018-08-17T23:26:33.471Z,17.48
2018-08-17T23:29:00.914Z,17.44
2018-08-17T23:31:28.595Z,17.41
2018-08-17T23:33:56.475Z,17.38
2018-08-17T23:36:23.982Z,17.35
2018-08-17T23:38:51.696Z,17.32
2018-08-17T23:41:19.247Z,17.29
2018-08-17T23:43:46.704Z,17.28
2018-08-17T23:46:14.313Z,17.25
2018-08-17T23:48:41.755Z,17.23
2018-08-17T23:51:09.264Z,17.19
2018-08-17T23:53:37.038Z,17.16
2018-08-17T23:56:04.531Z,17.13
2018-08-17T23:58:33.274Z,17.11
